Observations for Trim Market St
| Time | AQI | Temp °C | Hum % | Pres Pa | CO μg/m³ | H₂S μg/m³ | NO μg/m³ | NO₂ μg/m³ | O₃ μg/m³ | SO₂ μg/m³ | PM1 μg/m³ | PM2.5 μg/m³ | PM10 μg/m³ |
|---|---|---|---|---|---|---|---|---|---|---|---|---|---|
| Thursday 9 July 2026 | |||||||||||||
| 09:11 | 1 | 23 | 60 | 57,562 | 0.07 | 0 | 0.87 | 1.99 | 6.1 | 0 | 0 | 1.51 | 2.06 |
| 09:09 | 1 | 22.9 | 60 | 57,570 | 0.09 | 0 | 1.14 | 0 | 4.72 | 0 | 0 | 1.51 | 2.06 |
| 09:08 | 1 | 22.9 | 61 | 57,563 | 0 | 0 | 1.28 | 0 | 0.48 | 0 | 0 | 1.5 | 2.07 |
| 09:07 | 1 | 22.9 | 61 | 57,546 | 0.01 | 0 | 0 | 0 | 2.6 | 0 | 0 | 1.49 | 2.08 |
| 09:06 | 1 | 22.9 | 61 | 57,538 | 0.08 | 0 | 0.69 | 0 | 0 | 0 | 0 | 1.49 | 2.08 |
| 09:05 | 1 | 22.9 | 61 | 57,523 | 0.01 | 0 | 0.12 | 0 | 0 | 0 | 0 | 1.48 | 2.09 |
| 09:03 | 1 | 22.8 | 61 | 57,491 | 0.04 | 0 | 2.49 | 1.54 | 0 | 0 | 0 | 1.47 | 2.1 |
| 08:57 | 1 | 22.6 | 62 | 57,423 | 0.05 | 0 | 2.98 | 4.52 | 4.24 | 0 | 0 | 1.44 | 2.13 |
| 08:56 | 1 | 22.5 | 62 | 57,406 | 0.13 | 0 | 6.39 | 5.93 | 0 | 0 | 0 | 1.44 | 2.14 |
| 08:53 | 1 | 22.4 | 63 | 57,290 | 0.06 | 0 | 3.8 | 3.28 | 0 | 0 | 0 | 1.41 | 2.17 |
| 08:50 | 1 | 22.2 | 63 | 57,224 | 0.05 | 0 | 0.22 | 0 | 0.13 | 0 | 0 | 1.39 | 2.19 |
| 08:49 | 1 | 22.2 | 63 | 57,199 | 0.14 | 0 | 1.33 | 0 | 0 | 0 | 0 | 1.38 | 2.2 |
| 08:43 | 1 | 22 | 64 | 57,113 | 0.06 | 0 | 0 | 0.85 | 3.89 | 0 | 0 | 1.36 | 2.23 |
| 08:42 | 1 | 22 | 64 | 57,088 | 0.16 | 0 | 5.62 | 3.34 | 0 | 0 | 0 | 1.35 | 2.23 |
| 08:41 | 1 | 22 | 64 | 57,052 | 0.34 | 0 | 2.44 | 1.62 | 0 | 0 | 0 | 1.35 | 2.24 |
| 08:40 | 1 | 21.9 | 64 | 57,009 | 0.31 | 0 | 2.98 | 0.82 | 0 | 0 | 0 | 1.34 | 2.25 |
| 08:39 | 1 | 21.9 | 64 | 56,975 | 0.07 | 0 | 0 | 1.02 | 6.31 | 0 | 0 | 1.34 | 2.25 |
| 08:38 | 1 | 21.9 | 64 | 56,981 | 0.1 | 0 | 0 | 1.72 | 8.37 | 0 | 0 | 1.34 | 2.25 |
| 08:37 | 1 | 21.8 | 64 | 56,983 | 0.26 | 0 | 4.35 | 2.65 | 0 | 0 | 0 | 1.34 | 2.25 |
| 08:35 | 1 | 21.8 | 65 | 56,910 | 0.12 | 0 | 0 | 0 | 0 | 0 | 0 | 1.32 | 2.27 |